Time;durP1;ratioP1;P1;durP2;ratioP2;P2;SDS_P1;SDS_P2;PMS_P1;PMS_P2;Temp;Humidity;BMP_temperature;BMP_pressure;BME280_temperature;BME280_humidity;BME280_pressure;Samples;Min_cycle;Max_cycle;Signal;HPM_P1;HPM_P2
2023/09/01 00:01:08;;;;;;;1.50;1.10;;;14.70;99.90;;;15.71;100.00;97799.22;5076046;28;20592;-81
2023/09/01 00:03:38;;;;;;;1.60;1.40;;;14.70;99.90;;;15.70;100.00;97799.44;5073943;28;20876;-82
2023/09/01 00:06:14;;;;;;;2.37;1.30;;;14.70;99.90;;;15.68;100.00;97796.22;5077757;28;20931;-80
2023/09/01 00:08:43;;;;;;;4.20;1.60;;;14.70;99.90;;;15.67;100.00;97789.34;5076433;28;20490;-81
2023/09/01 00:11:14;;;;;;;2.40;1.33;;;14.70;99.90;;;15.68;100.00;97788.31;5077387;28;20455;-80
2023/09/01 00:13:45;;;;;;;2.73;1.60;;;14.70;99.90;;;15.67;100.00;97782.25;5076812;28;20483;-80
2023/09/01 00:16:14;;;;;;;1.40;1.30;;;14.70;99.90;;;15.68;100.00;97786.50;5077894;28;20595;-80
2023/09/01 00:18:45;;;;;;;1.20;1.00;;;14.80;99.90;;;15.68;100.00;97775.94;5076765;28;20460;-80
2023/09/01 00:21:13;;;;;;;3.33;1.23;;;14.80;99.90;;;15.68;100.00;97788.31;5075666;28;20548;-80
2023/09/01 00:23:43;;;;;;;1.30;1.20;;;14.70;99.90;;;15.67;100.00;97784.06;5074026;28;20463;-80
2023/09/01 00:26:13;;;;;;;1.13;1.03;;;14.70;99.90;;;15.67;100.00;97778.78;5076006;28;20538;-80
2023/09/01 00:28:45;;;;;;;2.20;1.10;;;14.70;99.90;;;15.68;100.00;97785.69;5075865;28;20963;-80
2023/09/01 00:31:17;;;;;;;1.70;1.20;;;14.70;99.90;;;15.68;100.00;97783.06;5075623;28;20451;-81
2023/09/01 00:33:47;;;;;;;2.20;1.30;;;14.70;99.90;;;15.65;100.00;97780.88;5074201;28;20496;-80
2023/09/01 00:36:17;;;;;;;2.17;1.30;;;14.70;99.90;;;15.67;100.00;97778.78;5074765;28;20467;-81
2023/09/01 00:38:47;;;;;;;1.10;1.00;;;14.70;99.90;;;15.70;100.00;97783.63;5075010;28;20599;-81
2023/09/01 00:41:17;;;;;;;1.27;1.07;;;14.70;99.90;;;15.70;100.00;97778.34;5074681;28;20464;-80
2023/09/01 00:43:48;;;;;;;1.27;1.17;;;14.70;99.90;;;15.67;100.00;97773.53;5074627;28;20531;-81
2023/09/01 00:46:18;;;;;;;2.03;1.07;;;14.70;99.90;;;15.68;100.00;97780.41;5076963;28;20467;-81
2023/09/01 00:48:48;;;;;;;1.60;1.03;;;14.70;99.90;;;15.69;100.00;97782.81;5074413;28;20453;-81
2023/09/01 00:51:18;;;;;;;1.30;1.10;;;14.70;99.90;;;15.68;100.00;97785.69;5074294;28;20491;-81
2023/09/01 00:53:49;;;;;;;6.10;1.50;;;14.70;99.90;;;15.68;100.00;97781.22;5074566;28;20982;-81
2023/09/01 00:56:20;;;;;;;2.37;1.10;;;14.70;99.90;;;15.69;100.00;97782.03;5073911;28;20455;-81
2023/09/01 00:58:52;;;;;;;1.10;0.93;;;14.70;99.90;;;15.67;100.00;97773.53;5073059;28;20459;-81
2023/09/01 01:01:23;;;;;;;2.07;0.90;;;14.70;99.90;;;15.64;100.00;97773.97;5074873;28;20962;-81
2023/09/01 01:03:53;;;;;;;1.53;1.00;;;14.70;99.90;;;15.64;100.00;97779.25;5074096;28;20519;-81
2023/09/01 01:06:36;;;;;;;2.03;0.80;;;14.80;99.90;;;15.64;100.00;97773.97;5074926;28;20463;-81
2023/09/01 01:09:18;;;;;;;1.00;0.80;;;14.70;99.90;;;15.64;100.00;97766.06;5075240;28;20452;-81
2023/09/01 01:11:57;;;;;;;2.20;1.00;;;14.70;99.90;;;15.65;100.00;97765.06;5078542;28;20493;-80
2023/09/01 01:14:37;;;;;;;0.93;0.80;;;14.70;99.90;;;15.65;100.00;97767.69;5075237;28;20500;-81
2023/09/01 01:17:09;;;;;;;2.83;0.90;;;14.70;99.90;;;15.64;100.00;97768.72;5077268;28;20719;-81
2023/09/01 01:19:51;;;;;;;3.27;0.90;;;14.70;99.90;;;15.65;100.00;97770.31;5073868;28;21045;-81
2023/09/01 01:22:38;;;;;;;2.37;1.10;;;14.60;99.90;;;15.64;100.00;97763.44;5074983;28;20471;-81
2023/09/01 01:25:12;;;;;;;0.90;0.80;;;14.70;99.90;;;15.64;100.00;97763.44;5077108;28;20455;-81
2023/09/01 01:27:43;;;;;;;2.53;1.43;;;14.70;99.90;;;15.64;100.00;97763.44;5073732;28;20511;-81
2023/09/01 01:30:15;;;;;;;1.33;1.03;;;14.80;99.90;;;15.65;100.00;97754.50;5073640;28;20494;-82
2023/09/01 01:32:46;;;;;;;0.97;0.80;;;14.70;99.90;;;15.64;100.00;97763.44;5074059;28;20483;-81
2023/09/01 01:35:32;;;;;;;1.23;1.10;;;14.60;99.90;;;15.63;100.00;97761.81;5075967;28;20482;-81
2023/09/01 01:38:14;;;;;;;1.77;1.10;;;14.60;99.90;;;15.63;100.00;97767.09;5075507;28;20468;-81
2023/09/01 01:40:51;;;;;;;1.30;0.90;;;14.70;99.90;;;15.64;100.00;97763.44;5072820;28;20456;-81
2023/09/01 01:43:27;;;;;;;1.10;1.00;;;14.70;99.90;;;15.64;100.00;97763.44;5072522;28;20454;-81
2023/09/01 01:45:59;;;;;;;1.30;0.97;;;14.70;99.90;;;15.63;100.00;97772.38;5073141;28;20459;-80
2023/09/01 01:48:29;;;;;;;3.57;0.87;;;14.80;99.90;;;15.64;100.00;97766.88;5074346;28;20488;-81
2023/09/01 01:50:59;;;;;;;1.10;0.90;;;14.80;99.90;;;15.66;100.00;97766.63;5074727;28;20499;-81
2023/09/01 01:53:29;;;;;;;0.80;0.80;;;14.70;99.90;;;15.66;100.00;97772.72;5074926;28;20460;-81
2023/09/01 01:56:01;;;;;;;2.40;1.30;;;14.70;99.90;;;15.67;100.00;97770.88;5073368;28;20468;-81
2023/09/01 01:58:31;;;;;;;1.10;1.00;;;14.70;99.90;;;15.68;100.00;97769.88;5074719;28;20475;-81
2023/09/01 02:01:07;;;;;;;3.47;1.30;;;14.70;99.90;;;15.67;100.00;97761.16;5073030;28;20471;-81
2023/09/01 02:03:36;;;;;;;0.90;0.80;;;14.70;99.90;;;15.68;100.00;97762.75;5072861;28;20483;-82
2023/09/01 02:06:07;;;;;;;7.40;1.23;;;14.70;99.90;;;15.69;100.00;97768.84;5073374;28;20467;-80
2023/09/01 02:08:38;;;;;;;1.00;0.90;;;14.70;99.90;;;15.68;100.00;97765.41;5074170;28;20459;-81
2023/09/01 02:11:10;;;;;;;1.10;0.90;;;14.70;99.90;;;15.68;100.00;97775.13;5072971;28;20577;-81
2023/09/01 02:13:40;;;;;;;1.23;0.90;;;14.70;99.90;;;15.69;100.00;97760.94;5071504;28;20455;-81
2023/09/01 02:16:10;;;;;;;1.57;0.90;;;14.70;99.90;;;15.68;100.00;97760.13;5073756;28;20525;-81
2023/09/01 02:18:40;;;;;;;1.10;1.00;;;14.70;99.90;;;15.69;100.00;97758.31;5074304;28;21083;-81
2023/09/01 02:21:18;;;;;;;1.20;1.10;;;14.80;99.90;;;15.68;100.00;97762.75;5073058;28;20460;-81
2023/09/01 02:23:47;;;;;;;1.47;0.90;;;14.80;99.90;;;15.71;100.00;97769.41;5072195;28;20452;-81
2023/09/01 02:26:22;;;;;;;1.33;0.80;;;14.80;99.90;;;15.70;100.00;97767.78;5072040;28;20466;-81
2023/09/01 02:28:53;;;;;;;2.03;0.93;;;14.80;99.90;;;15.68;100.00;97760.13;5073724;28;20459;-81
2023/09/01 02:31:24;;;;;;;1.03;0.90;;;14.80;99.90;;;15.69;100.00;97768.84;5071795;28;20496;-81
2023/09/01 02:33:54;;;;;;;2.20;1.03;;;14.80;99.90;;;15.69;100.00;97769.63;5073455;28;20452;-81
2023/09/01 02:36:28;;;;;;;2.07;1.10;;;14.80;99.90;;;15.69;100.00;97766.22;5074311;28;20464;-81
2023/09/01 02:38:58;;;;;;;1.10;0.90;;;14.80;99.90;;;15.68;100.00;97775.94;5075357;28;20501;-81
2023/09/01 02:41:30;;;;;;;1.10;1.00;;;14.80;99.90;;;15.67;100.00;97778.78;5071805;28;20596;-81
2023/09/01 02:43:59;;;;;;;3.40;0.90;;;14.80;99.90;;;15.69;100.00;97768.84;5075917;28;20540;-81
2023/09/01 02:46:29;;;;;;;12.73;1.10;;;14.80;99.90;;;15.71;100.00;97767.59;5073959;28;21070;-81
2023/09/01 02:48:58;;;;;;;2.30;1.10;;;14.80;99.90;;;15.72;100.00;97766.56;5073963;28;20985;-81
2023/09/01 02:51:27;;;;;;;1.33;0.93;;;14.80;99.90;;;15.74;100.00;97763.69;5074224;28;20502;-81
2023/09/01 02:53:56;;;;;;;1.30;1.00;;;14.80;99.90;;;15.75;100.00;97765.28;5074504;28;20966;-81
2023/09/01 02:56:26;;;;;;;7.20;0.90;;;14.80;99.90;;;15.72;100.00;97756.00;5072634;28;20516;-81
2023/09/01 02:58:57;;;;;;;1.27;1.07;;;14.80;99.90;;;15.69;100.00;97766.22;5072569;28;20551;-81
2023/09/01 03:01:25;;;;;;;1.20;1.10;;;14.80;99.90;;;15.72;100.00;97760.47;5076654;28;20456;-81
2023/09/01 03:03:55;;;;;;;1.10;1.00;;;14.80;99.90;;;15.71;100.00;97764.13;5071741;28;20462;-82
2023/09/01 03:06:25;;;;;;;6.77;4.30;;;14.80;99.90;;;15.71;100.00;97758.88;5073851;28;20452;-80
2023/09/01 03:08:56;;;;;;;13.30;2.00;;;14.80;99.90;;;15.71;100.00;97764.94;5070991;28;20533;-81
2023/09/01 03:11:25;;;;;;;2.13;1.30;;;14.80;99.90;;;15.73;100.00;97756.78;5076159;28;20499;-81
2023/09/01 03:13:56;;;;;;;3.93;1.20;;;14.80;99.90;;;15.73;100.00;97762.88;5072975;28;20458;-81
2023/09/01 03:16:25;;;;;;;1.10;1.00;;;14.90;99.90;;;15.74;100.00;97758.41;5072417;28;20490;-81
2023/09/01 03:18:59;;;;;;;2.60;1.30;;;14.90;99.90;;;15.77;100.00;97763.22;5073432;28;20451;-80
2023/09/01 03:21:30;;;;;;;3.43;1.23;;;14.90;99.90;;;15.77;100.00;97756.13;5074924;28;20821;-79
2023/09/01 03:24:00;;;;;;;1.93;1.30;;;14.90;99.90;;;15.78;100.00;97765.66;5073728;28;20452;-80
2023/09/01 03:26:30;;;;;;;3.93;1.07;;;14.90;99.90;;;15.78;100.00;97767.47;5069801;28;22402;-80
2023/09/01 03:29:04;;;;;;;1.60;1.00;;;14.90;99.90;;;15.80;100.00;97768.03;5074417;28;20464;-80
2023/09/01 03:31:37;;;;;;;1.13;1.00;;;14.90;99.90;;;15.82;100.00;97766.00;5074915;28;20502;-80
2023/09/01 03:34:09;;;;;;;2.60;1.30;;;14.90;99.90;;;15.83;100.00;97764.94;5069252;28;20455;-80
2023/09/01 03:36:39;;;;;;;1.73;1.00;;;14.90;99.90;;;15.84;100.00;97763.94;5076103;28;21027;-80
2023/09/01 03:39:09;;;;;;;3.00;1.30;;;14.90;99.90;;;15.85;100.00;97763.72;5073041;28;20464;-80
2023/09/01 03:41:41;;;;;;;5.90;1.20;;;14.90;99.90;;;15.85;100.00;97765.53;5074502;28;20463;-81
2023/09/01 03:44:13;;;;;;;11.10;4.90;;;14.90;99.90;;;15.85;100.00;97755.81;5076061;28;20950;-79
2023/09/01 03:46:43;;;;;;;1.37;1.20;;;14.90;99.90;;;15.83;100.00;97754.41;5076250;28;20460;-80
2023/09/01 03:49:11;;;;;;;2.17;1.43;;;15.00;99.90;;;15.84;100.00;97754.19;5076784;28;20486;-79
2023/09/01 03:51:42;;;;;;;1.30;1.13;;;15.00;99.90;;;15.84;100.00;97753.38;5076845;28;20595;-80
2023/09/01 03:54:12;;;;;;;1.13;1.00;;;15.00;99.90;;;15.86;100.00;97751.34;5075653;28;20448;-79
2023/09/01 03:56:42;;;;;;;1.53;1.10;;;15.00;99.90;;;15.87;100.00;97750.28;5077349;28;20943;-79
2023/09/01 03:59:14;;;;;;;2.90;1.00;;;15.00;99.90;;;15.88;100.00;97750.06;5076815;28;20451;-79
2023/09/01 04:01:44;;;;;;;6.23;1.30;;;15.00;99.90;;;15.88;100.00;97760.63;5075449;28;20460;-79
2023/09/01 04:04:14;;;;;;;4.80;1.20;;;15.00;99.90;;;15.89;100.00;97750.88;5075067;28;20510;-80
2023/09/01 04:06:44;;;;;;;1.80;1.50;;;15.00;99.90;;;15.90;100.00;97755.91;5074038;28;20975;-81
2023/09/01 04:09:15;;;;;;;5.20;1.63;;;15.00;99.90;;;15.91;100.00;97754.06;5077161;28;20463;-79
2023/09/01 04:11:44;;;;;;;1.43;1.27;;;15.00;99.90;;;15.92;100.00;97760.97;5074404;28;20577;-79
2023/09/01 04:14:15;;;;;;;1.40;1.20;;;15.00;99.90;;;15.92;100.00;97755.69;5075816;28;20455;-79
2023/09/01 04:16:44;;;;;;;2.30;1.40;;;15.10;99.90;;;15.91;100.00;97748.81;5076320;28;20474;-80
2023/09/01 04:19:14;;;;;;;5.13;1.07;;;15.10;99.90;;;15.91;100.00;97754.88;5075527;28;20506;-80
2023/09/01 04:21:43;;;;;;;2.30;1.30;;;15.10;99.90;;;15.93;100.00;97755.44;5075109;28;20460;-79
2023/09/01 04:24:12;;;;;;;8.03;1.40;;;15.10;99.90;;;15.95;100.00;97749.97;5074819;28;20463;-80
2023/09/01 04:26:42;;;;;;;3.97;2.57;;;15.10;99.90;;;15.95;100.00;97750.75;5076795;28;20468;-80
2023/09/01 04:29:14;;;;;;;2.07;1.87;;;15.10;99.90;;;15.96;100.00;97757.66;5077124;28;20469;-81
2023/09/01 04:31:44;;;;;;;7.03;2.60;;;15.10;99.90;;;15.96;100.00;97752.38;5072632;28;20569;-79
2023/09/01 04:34:14;;;;;;;2.67;1.70;;;15.10;99.90;;;15.96;100.00;97755.00;5073736;28;20464;-79
2023/09/01 04:36:46;;;;;;;3.50;1.20;;;15.10;99.90;;;15.99;100.00;97761.66;5072040;28;20467;-80
2023/09/01 04:39:17;;;;;;;1.20;1.10;;;15.10;99.90;;;15.99;100.00;97762.47;5077157;28;21018;-80
2023/09/01 04:41:46;;;;;;;1.60;1.27;;;15.10;99.90;;;15.99;100.00;97762.47;5076318;28;20463;-79
2023/09/01 04:44:17;;;;;;;1.67;1.40;;;15.00;99.90;;;16.01;100.00;97764.88;5077683;28;20558;-79
2023/09/01 04:46:48;;;;;;;1.20;1.10;;;15.10;99.90;;;16.02;100.00;97764.66;5076056;28;20460;-80
2023/09/01 04:49:18;;;;;;;2.40;1.23;;;15.10;99.90;;;16.03;100.00;97768.91;5077295;28;20471;-81
2023/09/01 04:51:49;;;;;;;5.13;1.37;;;15.10;99.90;;;16.04;100.00;97775.75;5078048;28;21029;-79
2023/09/01 04:54:18;;;;;;;3.83;1.40;;;15.10;99.90;;;16.05;100.00;97779.22;5077569;28;20468;-81
2023/09/01 04:56:49;;;;;;;1.43;1.33;;;15.10;99.90;;;16.04;100.00;97773.13;5077096;28;20456;-79
2023/09/01 04:59:22;;;;;;;1.70;1.40;;;15.00;99.90;;;16.05;100.00;97776.56;5077756;28;20986;-79
2023/09/01 05:01:51;;;;;;;5.37;1.30;;;15.10;99.90;;;16.04;100.00;97778.41;5075144;28;21177;-79
2023/09/01 05:04:21;;;;;;;13.40;1.40;;;15.10;99.90;;;16.06;100.00;97780.81;5075945;28;20517;-79
2023/09/01 05:06:52;;;;;;;2.77;1.40;;;15.10;99.90;;;16.05;100.00;97793.19;5077693;28;20943;-80
2023/09/01 05:09:22;;;;;;;1.40;1.30;;;15.10;99.90;;;16.07;100.00;97779.75;5075175;28;20452;-79
2023/09/01 05:11:53;;;;;;;3.63;1.27;;;15.10;99.90;;;16.07;100.00;97774.50;5075294;28;20581;-80
2023/09/01 05:14:25;;;;;;;6.10;1.00;;;15.20;99.90;;;16.07;100.00;97779.75;5076036;28;20470;-79
2023/09/01 05:16:56;;;;;;;4.13;1.53;;;15.20;99.90;;;16.07;100.00;97775.31;5074555;28;20491;-79
2023/09/01 05:19:26;;;;;;;1.70;1.20;;;15.20;99.90;;;16.10;100.00;97779.34;5074448;28;20488;-79
2023/09/01 05:21:56;;;;;;;7.53;1.30;;;15.10;99.90;;;16.10;100.00;97774.06;5076519;28;20878;-79
2023/09/01 05:24:26;;;;;;;1.83;1.37;;;15.20;99.90;;;16.10;100.00;97774.06;5074883;28;20463;-79
2023/09/01 05:26:55;;;;;;;1.83;1.00;;;15.20;99.90;;;16.11;100.00;97771.19;5076824;28;20455;-79
2023/09/01 05:29:27;;;;;;;1.20;1.10;;;15.20;99.90;;;16.12;100.00;97769.34;5075763;28;20464;-79
2023/09/01 05:31:57;;;;;;;1.60;1.23;;;15.20;99.90;;;16.14;100.00;97779.69;5073626;28;20498;-80
2023/09/01 05:34:27;;;;;;;1.40;1.30;;;15.20;99.90;;;16.16;100.00;97772.34;5076709;28;20452;-79
2023/09/01 05:36:59;;;;;;;4.10;1.20;;;15.20;99.90;;;16.17;100.00;97774.75;5075376;28;20464;-79
2023/09/01 05:39:29;;;;;;;1.20;1.10;;;15.20;99.90;;;16.20;100.00;97784.03;5076000;28;20463;-79
2023/09/01 05:42:00;;;;;;;4.43;1.40;;;15.30;99.90;;;16.19;100.00;97775.31;5074832;28;20475;-79
2023/09/01 05:44:31;;;;;;;3.03;1.43;;;15.30;99.90;;;16.21;100.00;97775.88;5076680;28;20460;-80
2023/09/01 05:47:02;;;;;;;3.20;2.67;;;15.30;99.90;;;16.22;100.00;97769.56;5077938;28;20963;-80
2023/09/01 05:49:34;;;;;;;3.90;1.40;;;15.40;99.90;;;16.25;100.00;97782.31;5080324;28;20991;-79
2023/09/01 05:52:04;;;;;;;14.03;1.60;;;15.40;99.90;;;16.27;100.00;97777.63;5076678;28;20623;-79
2023/09/01 05:54:34;;;;;;;2.93;1.50;;;15.50;99.90;;;16.29;100.00;97780.00;5076584;28;20468;-80
2023/09/01 05:57:05;;;;;;;1.50;1.40;;;15.40;99.90;;;16.30;100.00;97779.00;5076710;28;20501;-80
2023/09/01 05:59:36;;;;;;;6.50;1.73;;;15.50;99.90;;;16.32;100.00;97777.72;5076159;28;20452;-79
2023/09/01 06:02:07;;;;;;;1.80;1.23;;;15.50;99.90;;;16.36;100.00;97776.22;5076866;28;20462;-79
2023/09/01 06:04:36;;;;;;;2.20;1.40;;;15.60;99.90;;;16.39;100.00;97773.13;5078030;28;20911;-80
2023/09/01 06:07:08;;;;;;;2.50;1.53;;;15.60;99.90;;;16.42;100.00;97774.50;5076392;28;20466;-79
2023/09/01 06:09:38;;;;;;;2.03;1.40;;;15.60;99.90;;;16.46;100.00;97773.00;5076973;28;20464;-80
2023/09/01 06:12:08;;;;;;;2.30;1.20;;;15.60;99.90;;;16.49;100.00;97770.72;5076756;28;20582;-81
2023/09/01 06:14:39;;;;;;;1.80;1.60;;;15.70;99.90;;;16.54;100.00;97770.03;5079422;28;20467;-80
2023/09/01 06:17:10;;;;;;;4.17;1.63;;;15.70;99.90;;;16.58;100.00;97777.28;5077638;28;20551;-80
2023/09/01 06:19:40;;;;;;;3.53;1.57;;;15.80;99.90;;;16.62;100.00;97776.81;5075773;28;21061;-80
2023/09/01 06:22:09;;;;;;;2.07;1.37;;;15.80;99.90;;;16.68;100.00;97786.44;5073768;28;20807;-79
2023/09/01 06:24:39;;;;;;;1.40;1.30;;;15.90;99.90;;;16.73;100.00;97795.28;5075594;28;20468;-79
2023/09/01 06:27:09;;;;;;;6.83;2.57;;;15.90;99.90;;;16.77;100.00;97792.97;5075226;28;20516;-80
2023/09/01 06:29:41;;;;;;;2.43;1.80;;;16.00;99.90;;;16.83;100.00;97794.69;5076630;28;20459;-79
2023/09/01 06:32:11;;;;;;;1.77;1.67;;;16.10;99.90;;;16.90;100.00;97798.78;5074864;28;20491;-79
2023/09/01 06:34:41;;;;;;;8.13;1.90;;;16.20;99.90;;;16.94;100.00;97789.38;5079685;28;20482;-80
2023/09/01 06:37:11;;;;;;;4.70;1.53;;;16.30;99.90;;;17.01;100.00;97797.16;5078584;28;20495;-80
2023/09/01 06:39:41;;;;;;;7.30;2.23;;;16.30;99.90;;;17.04;100.00;97794.84;5078227;28;20463;-79
2023/09/01 06:42:11;;;;;;;10.00;1.70;;;16.30;99.90;;;17.09;100.00;97797.63;5075952;28;20533;-79
2023/09/01 06:44:42;;;;;;;3.73;1.93;;;16.40;99.90;;;17.13;100.00;97797.94;5077485;28;20462;-80
2023/09/01 06:47:11;;;;;;;5.40;1.70;;;16.50;99.90;;;17.17;100.00;97801.72;5077144;28;20625;-80
2023/09/01 06:49:42;;;;;;;2.60;1.90;;;16.50;99.90;;;17.19;100.00;97802.28;5075716;28;20495;-79
2023/09/01 06:52:13;;;;;;;2.90;1.83;;;16.50;99.90;;;17.24;100.00;97801.59;5076244;28;20518;-80
2023/09/01 06:54:42;;;;;;;1.90;1.70;;;16.60;99.90;;;17.26;100.00;97802.16;5077570;28;20492;-79
2023/09/01 06:57:12;;;;;;;4.37;1.73;;;16.60;99.90;;;17.29;100.00;97805.13;5079821;28;20517;-79
2023/09/01 06:59:43;;;;;;;5.07;2.07;;;16.60;99.90;;;17.32;100.00;97815.22;5078496;28;20669;-79
2023/09/01 07:02:13;;;;;;;5.70;1.83;;;16.60;99.90;;;17.34;100.00;97815.81;5080622;28;20463;-80
2023/09/01 07:04:43;;;;;;;2.37;2.17;;;16.70;99.90;;;17.39;100.00;97809.81;5078907;28;20463;-79
2023/09/01 07:07:13;;;;;;;3.40;1.90;;;16.70;99.90;;;17.43;100.00;97818.88;5078627;28;20458;-80
2023/09/01 07:09:45;;;;;;;5.80;1.57;;;16.70;99.90;;;17.44;100.00;97818.63;5080380;28;20488;-80
2023/09/01 07:12:15;;;;;;;6.93;2.13;;;16.70;99.90;;;17.45;100.00;97814.97;5076670;28;20951;-79
2023/09/01 07:14:46;;;;;;;9.40;1.60;;;16.80;99.90;;;17.49;100.00;97815.28;5079320;28;20606;-80
2023/09/01 07:17:21;;;;;;;4.50;1.83;;;16.80;99.90;;;17.50;100.00;97817.69;5079314;28;20458;-79
2023/09/01 07:19:52;;;;;;;3.30;1.87;;;16.80;99.90;;;17.52;100.00;97815.63;5079494;28;20563;-79
2023/09/01 07:22:23;;;;;;;2.67;1.60;;;16.80;99.90;;;17.54;100.00;97815.38;5079104;28;20499;-80
2023/09/01 07:24:53;;;;;;;4.27;2.23;;;16.80;99.90;;;17.56;100.00;97818.63;5082914;28;20545;-79
2023/09/01 07:27:24;;;;;;;3.10;2.00;;;16.70;99.90;;;17.58;100.00;97820.00;5077439;28;21578;-80
2023/09/01 07:29:56;;;;;;;2.10;1.57;;;16.80;99.90;;;17.62;100.00;97816.88;5079620;28;20459;-79
2023/09/01 07:32:26;;;;;;;2.47;1.80;;;16.80;99.90;;;17.64;100.00;97814.78;5077140;28;20566;-79
2023/09/01 07:34:58;;;;;;;6.00;1.60;;;16.90;99.90;;;17.67;100.00;97816.97;5080512;28;21031;-80
2023/09/01 07:37:28;;;;;;;1.80;1.70;;;16.90;99.90;;;17.69;100.00;97812.22;5077736;28;20473;-80
2023/09/01 07:39:59;;;;;;;2.00;1.50;;;16.90;99.90;;;17.71;100.00;97818.88;5080088;28;20468;-80
2023/09/01 07:42:28;;;;;;;2.23;1.70;;;17.00;99.90;;;17.74;100.00;97817.59;5078283;28;20463;-80
2023/09/01 07:44:59;;;;;;;3.13;2.43;;;17.00;99.90;;;17.76;100.00;97815.53;5080961;28;20943;-79
2023/09/01 07:47:29;;;;;;;12.50;3.03;;;17.00;99.90;;;17.79;100.00;97815.06;5079362;28;20991;-78
2023/09/01 07:49:59;;;;;;;6.17;2.43;;;17.00;99.90;;;17.82;100.00;97817.22;5080250;28;20542;-80
2023/09/01 07:52:29;;;;;;;3.97;3.20;;;17.10;99.90;;;17.85;100.00;97812.25;5079915;28;21011;-80
2023/09/01 07:54:59;;;;;;;3.63;3.07;;;17.10;99.90;;;17.90;100.00;97824.78;5079285;28;20586;-79
2023/09/01 07:57:29;;;;;;;4.33;3.57;;;17.20;99.90;;;17.92;100.00;97820.03;5077632;28;20499;-80
2023/09/01 08:00:00;;;;;;;3.40;3.10;;;17.20;99.90;;;17.98;100.00;97824.34;5082740;28;20550;-80
2023/09/01 08:02:29;;;;;;;5.27;3.77;;;17.20;99.90;;;17.99;100.00;97826.78;5081199;28;20490;-79
2023/09/01 08:04:58;;;;;;;4.33;3.93;;;17.30;99.90;;;18.03;100.00;97822.63;5078725;28;20471;-80
2023/09/01 08:07:28;;;;;;;9.50;4.20;;;17.30;99.90;;;18.09;100.00;97831.44;5078289;28;20472;-79
2023/09/01 08:09:57;;;;;;;6.00;4.07;;;17.40;99.90;;;18.11;100.00;97824.06;5079032;28;20521;-80
2023/09/01 08:12:29;;;;;;;5.13;3.93;;;17.40;99.90;;;18.12;100.00;97820.38;5078578;28;20468;-81
2023/09/01 08:15:00;;;;;;;4.20;3.80;;;17.50;99.90;;;18.15;100.00;97827.84;5078586;28;20646;-80
2023/09/01 08:17:30;;;;;;;10.17;3.80;;;17.50;99.90;;;18.19;100.00;97830.81;5077876;28;20487;-79
2023/09/01 08:20:02;;;;;;;4.97;3.90;;;17.50;99.90;;;18.21;100.00;97824.22;5078032;28;20527;-81
2023/09/01 08:22:33;;;;;;;4.37;3.63;;;17.50;99.90;;;18.23;100.00;97835.38;5078904;28;20474;-80
2023/09/01 08:25:04;;;;;;;5.10;4.30;;;17.50;99.90;;;18.26;100.00;97826.13;5079662;28;20468;-78
2023/09/01 08:27:33;;;;;;;4.77;4.03;;;17.60;99.90;;;18.32;100.00;97827.84;5077621;28;20459;-80
2023/09/01 08:30:07;;;;;;;4.57;4.00;;;17.70;99.90;;;18.36;100.00;97832.38;5077623;28;21288;-80
2023/09/01 08:32:37;;;;;;;4.83;4.00;;;17.70;99.90;;;18.38;100.00;97827.66;5078057;28;20483;-80
2023/09/01 08:35:08;;;;;;;8.53;4.80;;;17.80;99.90;;;18.45;100.00;97832.81;5077772;28;20491;-79
2023/09/01 08:37:37;;;;;;;4.90;4.17;;;17.80;99.90;;;18.50;100.00;97833.69;5075644;28;20826;-80
2023/09/01 08:40:11;;;;;;;4.83;4.20;;;17.90;99.90;;;18.58;100.00;97820.06;5078036;28;20460;-80
2023/09/01 08:42:48;;;;;;;5.80;4.60;;;18.00;99.90;;;18.65;100.00;97825.16;5078564;28;20468;-79
2023/09/01 08:45:20;;;;;;;4.63;4.10;;;18.00;99.90;;;18.68;100.00;97829.97;5077094;28;20856;-79
2023/09/01 08:47:50;;;;;;;7.60;4.87;;;18.00;99.90;;;18.72;100.00;97827.66;5079695;28;20471;-78
2023/09/01 08:50:20;;;;;;;4.80;4.20;;;18.10;99.90;;;18.76;100.00;97826.13;5078804;28;20464;-79
2023/09/01 08:52:50;;;;;;;4.57;4.17;;;18.10;99.90;;;18.80;100.00;97827.22;5077663;28;20459;-78
2023/09/01 08:55:20;;;;;;;3.83;3.40;;;18.10;99.90;;;18.81;100.00;97831.50;5076432;28;20527;-80
2023/09/01 08:57:50;;;;;;;5.30;4.10;;;18.10;99.90;;;18.85;100.00;97822.00;5075230;28;20467;-80
2023/09/01 09:00:23;;;;;;;25.97;4.00;;;18.20;99.90;;;18.87;100.00;97820.72;5078651;28;20467;-79
2023/09/01 09:02:53;;;;;;;3.67;3.37;;;18.10;99.90;;;18.92;100.00;97825.25;5076958;28;20536;-79
2023/09/01 09:05:35;;;;;;;4.80;3.27;;;18.20;99.90;;;18.97;100.00;97825.34;5076817;28;21033;-79
2023/09/01 09:08:09;;;;;;;3.53;3.23;;;18.30;99.90;;;19.00;100.00;97824.84;5077203;28;20456;-79
2023/09/01 09:10:40;;;;;;;4.03;3.60;;;18.40;99.90;;;19.06;100.00;97829.16;5077801;28;20524;-79
2023/09/01 09:13:23;;;;;;;4.27;3.70;;;18.50;99.90;;;19.07;100.00;97830.75;5079232;28;20456;-79
2023/09/01 09:16:12;;;;;;;7.20;3.60;;;18.50;99.90;;;19.13;100.00;97831.63;5077570;28;20560;-79
2023/09/01 09:18:45;;;;;;;4.23;3.83;;;18.50;99.90;;;19.17;100.00;97828.22;5077520;28;20455;-79
2023/09/01 09:21:26;;;;;;;4.50;4.00;;;18.50;99.90;;;19.22;100.00;97825.66;5079327;28;20558;-79
2023/09/01 09:23:58;;;;;;;5.83;3.87;;;18.60;99.90;;;19.24;100.00;97830.69;5077651;28;20839;-79
2023/09/01 09:26:56;;;;;;;4.30;3.90;;;18.70;99.90;;;19.20;100.00;97833.03;5078146;28;20446;-80
2023/09/01 09:29:26;;;;;;;5.17;4.40;;;18.60;99.90;;;19.23;100.00;97829.13;5077097;28;20464;-80
2023/09/01 09:31:57;;;;;;;4.90;4.07;;;18.60;99.90;;;19.25;100.00;97841.06;5075474;28;20476;-80
2023/09/01 09:34:28;;;;;;;7.50;4.10;;;18.60;99.90;;;19.28;100.00;97845.88;5077604;28;20512;-79
2023/09/01 09:36:59;;;;;;;4.27;3.87;;;18.60;99.90;;;19.29;100.00;97844.84;5076792;28;20537;-79
2023/09/01 09:39:31;;;;;;;4.10;3.70;;;18.60;99.90;;;19.31;100.00;97841.91;5076799;28;20959;-79
2023/09/01 09:42:00;;;;;;;4.10;3.70;;;18.60;99.90;;;19.29;100.00;97844.84;5076392;28;20479;-79
2023/09/01 09:44:31;;;;;;;3.70;3.30;;;18.60;99.90;;;19.29;100.00;97846.69;5075888;28;20469;-79
2023/09/01 09:47:07;;;;;;;3.47;2.90;;;18.70;99.90;;;19.30;100.00;97846.41;5075840;28;20490;-79
2023/09/01 09:49:38;;;;;;;2.63;2.43;;;18.80;99.90;;;19.32;100.00;97846.19;5078289;28;20470;-79
2023/09/01 09:52:10;;;;;;;2.50;2.30;;;18.80;99.90;;;19.31;100.00;97850.69;5074387;28;20479;-79
2023/09/01 09:54:46;;;;;;;2.20;1.97;;;18.80;99.90;;;19.31;100.00;97853.34;5076017;28;20503;-79
2023/09/01 09:57:21;;;;;;;2.00;1.80;;;18.70;99.90;;;19.29;100.00;97855.44;5078661;28;20464;-80
2023/09/01 10:00:06;;;;;;;2.30;2.10;;;18.70;99.90;;;19.28;100.00;97853.84;5076041;28;20456;-79
2023/09/01 10:02:46;;;;;;;3.23;1.90;;;18.60;99.90;;;19.34;100.00;97852.03;5073712;28;20459;-79
2023/09/01 10:05:19;;;;;;;2.80;2.07;;;18.70;99.90;;;19.39;100.00;97850.25;5077923;28;20471;-79
2023/09/01 10:07:49;;;;;;;7.53;1.87;;;18.80;99.90;;;19.41;100.00;97848.19;5075625;28;20989;-79
2023/09/01 10:10:19;;;;;;;2.47;1.40;;;18.80;99.90;;;19.42;100.00;97852.44;5075604;28;20462;-80
2023/09/01 10:12:48;;;;;;;4.13;1.50;;;18.80;99.90;;;19.46;100.00;97848.25;5075305;28;20477;-79
2023/09/01 10:15:21;;;;;;;1.40;1.30;;;18.80;99.90;;;19.34;100.00;97855.47;5077629;28;20496;-78
2023/09/01 10:17:53;;;;;;;2.07;1.40;;;18.70;99.90;;;19.29;100.00;97849.34;5075666;28;20953;-79
2023/09/01 10:20:24;;;;;;;2.20;1.20;;;18.70;99.90;;;19.31;100.00;97849.88;5076339;28;20467;-79
2023/09/01 10:22:54;;;;;;;1.60;1.10;;;18.70;99.90;;;19.33;100.00;97848.56;5075856;28;20525;-79
2023/09/01 10:25:24;;;;;;;1.07;0.93;;;18.80;99.90;;;19.36;100.00;97850.75;5077305;28;20463;-80
2023/09/01 10:28:06;;;;;;;1.53;1.27;;;18.90;99.90;;;19.38;100.00;97845.19;5078087;28;21044;-79
2023/09/01 10:30:38;;;;;;;1.53;1.00;;;18.80;99.90;;;19.43;100.00;97848.75;5080310;28;20479;-79